sensor_id;sensor_type;location;lat;lon;timestamp;temperature;humidity
19906;DHT22;10115;50.906;4.438;2022-07-25T00:01:45;24.70;99.90
19906;DHT22;10115;50.906;4.438;2022-07-25T00:04:11;24.70;99.90
19906;DHT22;10115;50.906;4.438;2022-07-25T00:06:40;24.60;99.90
19906;DHT22;10115;50.906;4.438;2022-07-25T00:09:07;24.60;99.90
19906;DHT22;10115;50.906;4.438;2022-07-25T00:11:33;24.60;99.90
19906;DHT22;10115;50.906;4.438;2022-07-25T00:13:58;24.60;99.90
19906;DHT22;10115;50.906;4.438;2022-07-25T00:16:24;24.60;99.90
19906;DHT22;10115;50.906;4.438;2022-07-25T00:18:50;24.50;99.90
19906;DHT22;10115;50.906;4.438;2022-07-25T00:21:15;24.40;99.90
19906;DHT22;10115;50.906;4.438;2022-07-25T00:23:41;24.40;99.90
19906;DHT22;10115;50.906;4.438;2022-07-25T00:26:07;24.30;99.90
19906;DHT22;10115;50.906;4.438;2022-07-25T00:28:32;24.30;99.90
19906;DHT22;10115;50.906;4.438;2022-07-25T00:30:58;24.20;99.90
19906;DHT22;10115;50.906;4.438;2022-07-25T00:33:24;24.20;99.90
19906;DHT22;10115;50.906;4.438;2022-07-25T00:35:49;24.20;99.90
19906;DHT22;10115;50.906;4.438;2022-07-25T00:38:15;24.20;99.90
19906;DHT22;10115;50.906;4.438;2022-07-25T00:40:41;24.20;99.90
19906;DHT22;10115;50.906;4.438;2022-07-25T00:43:07;24.20;99.90
19906;DHT22;10115;50.906;4.438;2022-07-25T00:45:32;24.20;99.90
19906;DHT22;10115;50.906;4.438;2022-07-25T00:47:58;24.20;99.90
19906;DHT22;10115;50.906;4.438;2022-07-25T00:50:24;24.20;99.90
19906;DHT22;10115;50.906;4.438;2022-07-25T00:52:50;24.30;99.90
19906;DHT22;10115;50.906;4.438;2022-07-25T00:55:16;24.20;99.90
19906;DHT22;10115;50.906;4.438;2022-07-25T00:57:42;24.10;99.90
19906;DHT22;10115;50.906;4.438;2022-07-25T01:00:10;24.10;99.90
19906;DHT22;10115;50.906;4.438;2022-07-25T01:02:36;24.30;99.90
19906;DHT22;10115;50.906;4.438;2022-07-25T01:05:03;24.30;99.90
19906;DHT22;10115;50.906;4.438;2022-07-25T01:07:30;24.20;99.90
19906;DHT22;10115;50.906;4.438;2022-07-25T01:09:57;24.10;99.90
19906;DHT22;10115;50.906;4.438;2022-07-25T01:12:23;24.10;99.90
19906;DHT22;10115;50.906;4.438;2022-07-25T01:14:49;24.00;99.90
19906;DHT22;10115;50.906;4.438;2022-07-25T01:17:16;24.00;99.90
19906;DHT22;10115;50.906;4.438;2022-07-25T01:19:41;23.90;99.90
19906;DHT22;10115;50.906;4.438;2022-07-25T01:22:07;23.90;99.90
19906;DHT22;10115;50.906;4.438;2022-07-25T01:24:34;23.90;99.90
19906;DHT22;10115;50.906;4.438;2022-07-25T01:27:01;24.00;99.90
19906;DHT22;10115;50.906;4.438;2022-07-25T01:29:27;23.90;99.90
19906;DHT22;10115;50.906;4.438;2022-07-25T01:31:52;23.90;99.90
19906;DHT22;10115;50.906;4.438;2022-07-25T01:34:18;23.90;99.90
19906;DHT22;10115;50.906;4.438;2022-07-25T01:36:44;24.00;99.90
19906;DHT22;10115;50.906;4.438;2022-07-25T01:39:10;23.90;99.90
19906;DHT22;10115;50.906;4.438;2022-07-25T01:41:35;23.90;99.90
19906;DHT22;10115;50.906;4.438;2022-07-25T01:44:02;23.90;99.90
19906;DHT22;10115;50.906;4.438;2022-07-25T01:46:27;23.90;99.90
19906;DHT22;10115;50.906;4.438;2022-07-25T01:48:53;23.80;99.90
19906;DHT22;10115;50.906;4.438;2022-07-25T01:51:19;23.80;99.90
19906;DHT22;10115;50.906;4.438;2022-07-25T01:53:44;23.80;99.90
19906;DHT22;10115;50.906;4.438;2022-07-25T01:56:10;23.80;99.90
19906;DHT22;10115;50.906;4.438;2022-07-25T01:58:36;23.80;99.90
19906;DHT22;10115;50.906;4.438;2022-07-25T02:01:02;23.90;99.90
19906;DHT22;10115;50.906;4.438;2022-07-25T02:03:27;24.10;99.90
19906;DHT22;10115;50.906;4.438;2022-07-25T02:06:02;24.00;99.90
19906;DHT22;10115;50.906;4.438;2022-07-25T02:08:29;23.80;99.90
19906;DHT22;10115;50.906;4.438;2022-07-25T02:10:55;23.70;99.90
19906;DHT22;10115;50.906;4.438;2022-07-25T02:13:21;23.60;99.90
19906;DHT22;10115;50.906;4.438;2022-07-25T02:15:47;23.40;99.90
19906;DHT22;10115;50.906;4.438;2022-07-25T02:18:14;23.30;99.90
19906;DHT22;10115;50.906;4.438;2022-07-25T02:20:40;23.30;99.90
19906;DHT22;10115;50.906;4.438;2022-07-25T02:23:06;23.20;99.90
19906;DHT22;10115;50.906;4.438;2022-07-25T02:25:32;23.20;99.90
19906;DHT22;10115;50.906;4.438;2022-07-25T02:27:57;23.20;99.90
19906;DHT22;10115;50.906;4.438;2022-07-25T02:30:23;23.20;99.90
19906;DHT22;10115;50.906;4.438;2022-07-25T02:32:50;23.10;99.90
19906;DHT22;10115;50.906;4.438;2022-07-25T02:35:15;23.20;99.90
19906;DHT22;10115;50.906;4.438;2022-07-25T02:37:41;23.30;99.90
19906;DHT22;10115;50.906;4.438;2022-07-25T02:40:08;23.20;99.90
19906;DHT22;10115;50.906;4.438;2022-07-25T02:42:34;23.20;99.90
19906;DHT22;10115;50.906;4.438;2022-07-25T02:44:59;23.10;99.90
19906;DHT22;10115;50.906;4.438;2022-07-25T02:47:25;23.10;99.90
19906;DHT22;10115;50.906;4.438;2022-07-25T02:49:51;23.10;99.90
19906;DHT22;10115;50.906;4.438;2022-07-25T02:52:16;23.00;99.90
19906;DHT22;10115;50.906;4.438;2022-07-25T02:54:42;22.90;99.90
19906;DHT22;10115;50.906;4.438;2022-07-25T02:57:08;22.90;99.90
19906;DHT22;10115;50.906;4.438;2022-07-25T02:59:33;23.00;99.90
19906;DHT22;10115;50.906;4.438;2022-07-25T03:01:59;23.00;99.90
19906;DHT22;10115;50.906;4.438;2022-07-25T03:04:24;23.10;99.90
19906;DHT22;10115;50.906;4.438;2022-07-25T03:06:50;23.00;99.90
19906;DHT22;10115;50.906;4.438;2022-07-25T03:09:16;23.10;99.90
19906;DHT22;10115;50.906;4.438;2022-07-25T03:11:41;23.10;99.90
19906;DHT22;10115;50.906;4.438;2022-07-25T03:14:07;23.20;99.90
19906;DHT22;10115;50.906;4.438;2022-07-25T03:16:33;23.20;99.90
19906;DHT22;10115;50.906;4.438;2022-07-25T03:18:59;23.20;99.90
19906;DHT22;10115;50.906;4.438;2022-07-25T03:21:24;23.20;99.90
19906;DHT22;10115;50.906;4.438;2022-07-25T03:23:50;23.30;99.90
19906;DHT22;10115;50.906;4.438;2022-07-25T03:26:16;23.30;99.90
19906;DHT22;10115;50.906;4.438;2022-07-25T03:28:41;23.40;99.90
19906;DHT22;10115;50.906;4.438;2022-07-25T03:31:07;23.30;99.90
19906;DHT22;10115;50.906;4.438;2022-07-25T03:33:33;23.40;99.90
19906;DHT22;10115;50.906;4.438;2022-07-25T03:35:59;23.40;99.90
19906;DHT22;10115;50.906;4.438;2022-07-25T03:38:25;23.30;99.90
19906;DHT22;10115;50.906;4.438;2022-07-25T03:40:50;23.30;99.90
19906;DHT22;10115;50.906;4.438;2022-07-25T03:43:16;23.30;99.90
19906;DHT22;10115;50.906;4.438;2022-07-25T03:45:42;23.20;99.90
19906;DHT22;10115;50.906;4.438;2022-07-25T03:48:07;23.10;99.90
19906;DHT22;10115;50.906;4.438;2022-07-25T03:50:33;23.10;99.90
19906;DHT22;10115;50.906;4.438;2022-07-25T03:52:59;23.00;99.90
19906;DHT22;10115;50.906;4.438;2022-07-25T03:55:26;22.90;99.90
19906;DHT22;10115;50.906;4.438;2022-07-25T03:57:51;22.90;99.90
19906;DHT22;10115;50.906;4.438;2022-07-25T04:00:17;22.80;99.90
19906;DHT22;10115;50.906;4.438;2022-07-25T04:02:43;22.60;99.90
19906;DHT22;10115;50.906;4.438;2022-07-25T04:05:09;22.60;99.90
19906;DHT22;10115;50.906;4.438;2022-07-25T04:07:35;22.50;99.90
19906;DHT22;10115;50.906;4.438;2022-07-25T04:10:02;22.40;99.90
19906;DHT22;10115;50.906;4.438;2022-07-25T04:12:28;22.40;99.90
19906;DHT22;10115;50.906;4.438;2022-07-25T04:14:53;22.30;99.90
19906;DHT22;10115;50.906;4.438;2022-07-25T04:17:19;22.20;99.90
19906;DHT22;10115;50.906;4.438;2022-07-25T04:19:45;22.20;99.90
19906;DHT22;10115;50.906;4.438;2022-07-25T04:22:10;22.20;99.90
19906;DHT22;10115;50.906;4.438;2022-07-25T04:24:36;22.10;99.90
19906;DHT22;10115;50.906;4.438;2022-07-25T04:27:02;22.10;99.90
19906;DHT22;10115;50.906;4.438;2022-07-25T04:29:27;22.00;99.90
19906;DHT22;10115;50.906;4.438;2022-07-25T04:31:53;22.00;99.90
19906;DHT22;10115;50.906;4.438;2022-07-25T04:34:19;22.00;99.90
19906;DHT22;10115;50.906;4.438;2022-07-25T04:36:45;21.90;99.90
19906;DHT22;10115;50.906;4.438;2022-07-25T04:39:10;21.90;99.90
19906;DHT22;10115;50.906;4.438;2022-07-25T04:41:36;21.90;99.90
19906;DHT22;10115;50.906;4.438;2022-07-25T04:44:02;21.90;99.90
19906;DHT22;10115;50.906;4.438;2022-07-25T04:46:28;21.80;99.90
19906;DHT22;10115;50.906;4.438;2022-07-25T04:48:53;21.80;99.90
19906;DHT22;10115;50.906;4.438;2022-07-25T04:51:19;21.70;99.90
19906;DHT22;10115;50.906;4.438;2022-07-25T04:53:45;21.70;99.90
19906;DHT22;10115;50.906;4.438;2022-07-25T04:56:11;21.50;99.90
19906;DHT22;10115;50.906;4.438;2022-07-25T04:58:37;21.50;99.90
19906;DHT22;10115;50.906;4.438;2022-07-25T05:01:02;21.40;99.90
19906;DHT22;10115;50.906;4.438;2022-07-25T05:03:28;21.40;99.90
19906;DHT22;10115;50.906;4.438;2022-07-25T05:05:54;21.30;99.90
19906;DHT22;10115;50.906;4.438;2022-07-25T05:08:19;21.30;99.90
19906;DHT22;10115;50.906;4.438;2022-07-25T05:10:45;21.20;99.90
19906;DHT22;10115;50.906;4.438;2022-07-25T05:13:10;21.10;99.90
19906;DHT22;10115;50.906;4.438;2022-07-25T05:15:36;21.10;99.90
19906;DHT22;10115;50.906;4.438;2022-07-25T05:18:02;21.10;99.90
19906;DHT22;10115;50.906;4.438;2022-07-25T05:20:27;21.00;99.90
19906;DHT22;10115;50.906;4.438;2022-07-25T05:22:53;20.90;99.90
19906;DHT22;10115;50.906;4.438;2022-07-25T05:25:19;21.00;99.90
19906;DHT22;10115;50.906;4.438;2022-07-25T05:27:45;20.90;99.90
19906;DHT22;10115;50.906;4.438;2022-07-25T05:30:12;20.90;99.90
19906;DHT22;10115;50.906;4.438;2022-07-25T05:32:39;20.90;99.90
19906;DHT22;10115;50.906;4.438;2022-07-25T05:35:06;20.80;99.90
19906;DHT22;10115;50.906;4.438;2022-07-25T05:37:33;20.70;99.90
19906;DHT22;10115;50.906;4.438;2022-07-25T05:39:59;20.70;99.90
19906;DHT22;10115;50.906;4.438;2022-07-25T05:42:25;20.70;99.90
19906;DHT22;10115;50.906;4.438;2022-07-25T05:44:51;20.70;99.90
19906;DHT22;10115;50.906;4.438;2022-07-25T05:47:16;20.80;99.90
19906;DHT22;10115;50.906;4.438;2022-07-25T05:49:42;20.80;99.90
19906;DHT22;10115;50.906;4.438;2022-07-25T05:52:09;20.60;99.90
19906;DHT22;10115;50.906;4.438;2022-07-25T05:54:34;20.70;99.90
19906;DHT22;10115;50.906;4.438;2022-07-25T05:57:00;20.70;99.90
19906;DHT22;10115;50.906;4.438;2022-07-25T05:59:26;20.80;99.90
19906;DHT22;10115;50.906;4.438;2022-07-25T06:01:52;20.90;99.90
19906;DHT22;10115;50.906;4.438;2022-07-25T06:04:18;20.80;99.90
19906;DHT22;10115;50.906;4.438;2022-07-25T06:06:43;20.80;99.90
19906;DHT22;10115;50.906;4.438;2022-07-25T06:09:18;20.70;99.90
19906;DHT22;10115;50.906;4.438;2022-07-25T06:11:45;20.70;99.90
19906;DHT22;10115;50.906;4.438;2022-07-25T06:14:11;20.80;99.90
19906;DHT22;10115;50.906;4.438;2022-07-25T06:16:36;20.80;99.90
19906;DHT22;10115;50.906;4.438;2022-07-25T06:19:02;20.80;99.90
19906;DHT22;10115;50.906;4.438;2022-07-25T06:21:27;20.70;99.90
19906;DHT22;10115;50.906;4.438;2022-07-25T06:23:53;20.60;99.90
19906;DHT22;10115;50.906;4.438;2022-07-25T06:26:19;20.70;99.90
19906;DHT22;10115;50.906;4.438;2022-07-25T06:28:45;20.70;99.90
19906;DHT22;10115;50.906;4.438;2022-07-25T06:31:11;20.80;99.90
19906;DHT22;10115;50.906;4.438;2022-07-25T06:33:37;20.80;99.90
19906;DHT22;10115;50.906;4.438;2022-07-25T06:36:04;20.80;99.90
19906;DHT22;10115;50.906;4.438;2022-07-25T06:38:30;20.90;99.90
19906;DHT22;10115;50.906;4.438;2022-07-25T06:40:56;20.80;99.90
19906;DHT22;10115;50.906;4.438;2022-07-25T06:43:21;20.80;99.90
19906;DHT22;10115;50.906;4.438;2022-07-25T06:45:47;20.70;99.90
19906;DHT22;10115;50.906;4.438;2022-07-25T06:48:16;20.90;99.90
19906;DHT22;10115;50.906;4.438;2022-07-25T06:50:43;21.00;99.90
19906;DHT22;10115;50.906;4.438;2022-07-25T06:53:08;20.90;99.90
19906;DHT22;10115;50.906;4.438;2022-07-25T06:55:34;20.90;99.90
19906;DHT22;10115;50.906;4.438;2022-07-25T06:58:00;21.00;99.90
19906;DHT22;10115;50.906;4.438;2022-07-25T07:00:26;21.20;99.90
19906;DHT22;10115;50.906;4.438;2022-07-25T07:02:56;21.20;99.90
19906;DHT22;10115;50.906;4.438;2022-07-25T07:05:23;21.30;99.90
19906;DHT22;10115;50.906;4.438;2022-07-25T07:07:49;21.40;99.90
19906;DHT22;10115;50.906;4.438;2022-07-25T07:10:16;21.50;99.90
19906;DHT22;10115;50.906;4.438;2022-07-25T07:12:42;21.90;99.90
19906;DHT22;10115;50.906;4.438;2022-07-25T07:15:08;22.00;99.90
19906;DHT22;10115;50.906;4.438;2022-07-25T07:17:34;22.00;99.90
19906;DHT22;10115;50.906;4.438;2022-07-25T07:20:01;21.70;99.90
19906;DHT22;10115;50.906;4.438;2022-07-25T07:22:27;21.50;99.90
19906;DHT22;10115;50.906;4.438;2022-07-25T07:24:53;21.60;99.90
19906;DHT22;10115;50.906;4.438;2022-07-25T07:27:18;21.80;99.90
19906;DHT22;10115;50.906;4.438;2022-07-25T07:29:44;21.60;99.90
19906;DHT22;10115;50.906;4.438;2022-07-25T07:32:09;21.50;99.90
19906;DHT22;10115;50.906;4.438;2022-07-25T07:34:35;21.50;99.90
19906;DHT22;10115;50.906;4.438;2022-07-25T07:37:01;21.60;99.90
19906;DHT22;10115;50.906;4.438;2022-07-25T07:39:28;21.60;99.90
19906;DHT22;10115;50.906;4.438;2022-07-25T07:41:53;21.50;99.90
19906;DHT22;10115;50.906;4.438;2022-07-25T07:44:19;21.60;99.90
19906;DHT22;10115;50.906;4.438;2022-07-25T07:46:44;21.60;99.90
19906;DHT22;10115;50.906;4.438;2022-07-25T07:49:10;21.80;99.90
19906;DHT22;10115;50.906;4.438;2022-07-25T07:51:36;21.70;99.90
19906;DHT22;10115;50.906;4.438;2022-07-25T07:54:01;21.50;99.90
19906;DHT22;10115;50.906;4.438;2022-07-25T07:56:46;21.70;99.90
19906;DHT22;10115;50.906;4.438;2022-07-25T07:59:12;21.80;99.90
19906;DHT22;10115;50.906;4.438;2022-07-25T08:01:37;21.80;99.90
19906;DHT22;10115;50.906;4.438;2022-07-25T08:04:03;22.20;99.90
19906;DHT22;10115;50.906;4.438;2022-07-25T08:06:29;22.30;99.90
19906;DHT22;10115;50.906;4.438;2022-07-25T08:08:54;22.00;99.90
19906;DHT22;10115;50.906;4.438;2022-07-25T08:11:20;22.00;99.90
19906;DHT22;10115;50.906;4.438;2022-07-25T08:13:46;22.20;99.90
19906;DHT22;10115;50.906;4.438;2022-07-25T08:16:12;22.20;99.90
19906;DHT22;10115;50.906;4.438;2022-07-25T08:18:38;22.20;99.90
19906;DHT22;10115;50.906;4.438;2022-07-25T08:21:04;22.30;99.90
19906;DHT22;10115;50.906;4.438;2022-07-25T08:23:31;22.50;99.90
19906;DHT22;10115;50.906;4.438;2022-07-25T08:26:00;22.60;99.90
19906;DHT22;10115;50.906;4.438;2022-07-25T08:28:27;22.50;99.90
19906;DHT22;10115;50.906;4.438;2022-07-25T08:30:52;22.60;99.90
19906;DHT22;10115;50.906;4.438;2022-07-25T08:33:19;22.90;99.90
19906;DHT22;10115;50.906;4.438;2022-07-25T08:35:47;22.80;99.90
19906;DHT22;10115;50.906;4.438;2022-07-25T08:38:13;22.80;99.90
19906;DHT22;10115;50.906;4.438;2022-07-25T08:40:39;22.90;99.90
19906;DHT22;10115;50.906;4.438;2022-07-25T08:43:05;23.00;99.90
19906;DHT22;10115;50.906;4.438;2022-07-25T08:45:32;23.10;99.90
19906;DHT22;10115;50.906;4.438;2022-07-25T08:47:58;23.00;99.90
19906;DHT22;10115;50.906;4.438;2022-07-25T08:50:26;22.80;99.90
19906;DHT22;10115;50.906;4.438;2022-07-25T08:52:54;22.90;99.90
19906;DHT22;10115;50.906;4.438;2022-07-25T08:55:22;23.00;99.90
19906;DHT22;10115;50.906;4.438;2022-07-25T08:57:50;23.10;99.90
19906;DHT22;10115;50.906;4.438;2022-07-25T09:00:22;23.10;99.90
19906;DHT22;10115;50.906;4.438;2022-07-25T09:03:06;23.00;99.90
19906;DHT22;10115;50.906;4.438;2022-07-25T09:05:32;23.10;99.90
19906;DHT22;10115;50.906;4.438;2022-07-25T09:08:07;23.10;99.90
19906;DHT22;10115;50.906;4.438;2022-07-25T09:10:33;23.50;99.90
19906;DHT22;10115;50.906;4.438;2022-07-25T09:13:01;23.70;99.90
19906;DHT22;10115;50.906;4.438;2022-07-25T09:15:35;23.50;99.90
19906;DHT22;10115;50.906;4.438;2022-07-25T09:18:04;23.40;99.90
19906;DHT22;10115;50.906;4.438;2022-07-25T09:23:09;23.40;99.90
19906;DHT22;10115;50.906;4.438;2022-07-25T09:25:35;23.40;99.90
19906;DHT22;10115;50.906;4.438;2022-07-25T09:28:14;23.50;99.90
19906;DHT22;10115;50.906;4.438;2022-07-25T09:30:55;23.50;99.90
19906;DHT22;10115;50.906;4.438;2022-07-25T09:33:22;23.50;99.90
19906;DHT22;10115;50.906;4.438;2022-07-25T09:35:48;23.50;99.90
19906;DHT22;10115;50.906;4.438;2022-07-25T09:38:15;23.70;99.90
19906;DHT22;10115;50.906;4.438;2022-07-25T09:40:55;23.90;99.90
19906;DHT22;10115;50.906;4.438;2022-07-25T09:43:22;24.10;99.90
19906;DHT22;10115;50.906;4.438;2022-07-25T09:45:51;24.20;99.90
19906;DHT22;10115;50.906;4.438;2022-07-25T09:48:18;24.30;99.90
19906;DHT22;10115;50.906;4.438;2022-07-25T09:50:45;24.40;99.90
19906;DHT22;10115;50.906;4.438;2022-07-25T09:53:12;24.30;99.90
19906;DHT22;10115;50.906;4.438;2022-07-25T09:55:37;24.00;99.90
19906;DHT22;10115;50.906;4.438;2022-07-25T09:58:03;24.30;99.90
19906;DHT22;10115;50.906;4.438;2022-07-25T10:00:30;24.40;99.90
19906;DHT22;10115;50.906;4.438;2022-07-25T10:03:17;24.40;99.90
19906;DHT22;10115;50.906;4.438;2022-07-25T10:08:10;23.80;99.90
19906;DHT22;10115;50.906;4.438;2022-07-25T10:10:38;24.00;99.90
19906;DHT22;10115;50.906;4.438;2022-07-25T10:15:43;24.10;99.90
19906;DHT22;10115;50.906;4.438;2022-07-25T10:18:09;23.90;99.90
19906;DHT22;10115;50.906;4.438;2022-07-25T10:20:35;23.80;99.90
19906;DHT22;10115;50.906;4.438;2022-07-25T10:23:01;23.80;99.90
19906;DHT22;10115;50.906;4.438;2022-07-25T10:25:27;24.00;99.90
19906;DHT22;10115;50.906;4.438;2022-07-25T10:27:57;24.10;99.90
19906;DHT22;10115;50.906;4.438;2022-07-25T10:30:34;24.10;99.90
19906;DHT22;10115;50.906;4.438;2022-07-25T10:33:15;24.00;99.90
19906;DHT22;10115;50.906;4.438;2022-07-25T10:35:42;23.90;99.90
19906;DHT22;10115;50.906;4.438;2022-07-25T10:38:08;24.10;99.90
19906;DHT22;10115;50.906;4.438;2022-07-25T10:40:42;23.90;99.90
19906;DHT22;10115;50.906;4.438;2022-07-25T10:43:17;23.90;99.90
19906;DHT22;10115;50.906;4.438;2022-07-25T10:45:52;23.90;99.90
19906;DHT22;10115;50.906;4.438;2022-07-25T10:48:25;23.70;99.90
19906;DHT22;10115;50.906;4.438;2022-07-25T10:50:55;23.70;99.90
19906;DHT22;10115;50.906;4.438;2022-07-25T10:53:35;24.00;99.90
19906;DHT22;10115;50.906;4.438;2022-07-25T10:56:25;24.00;99.90
19906;DHT22;10115;50.906;4.438;2022-07-25T10:58:56;23.90;99.90
19906;DHT22;10115;50.906;4.438;2022-07-25T11:03:48;23.60;99.90
19906;DHT22;10115;50.906;4.438;2022-07-25T11:06:14;23.50;99.90
19906;DHT22;10115;50.906;4.438;2022-07-25T11:08:43;23.30;99.90
19906;DHT22;10115;50.906;4.438;2022-07-25T11:11:10;23.20;99.90
19906;DHT22;10115;50.906;4.438;2022-07-25T11:13:41;23.20;99.90
19906;DHT22;10115;50.906;4.438;2022-07-25T11:16:08;23.10;99.90
19906;DHT22;10115;50.906;4.438;2022-07-25T11:18:36;23.20;99.90
19906;DHT22;10115;50.906;4.438;2022-07-25T11:21:05;23.10;99.90
19906;DHT22;10115;50.906;4.438;2022-07-25T11:23:32;22.90;99.90
19906;DHT22;10115;50.906;4.438;2022-07-25T11:26:09;23.00;99.90
19906;DHT22;10115;50.906;4.438;2022-07-25T11:28:44;23.00;99.90
19906;DHT22;10115;50.906;4.438;2022-07-25T11:31:11;23.00;99.90
19906;DHT22;10115;50.906;4.438;2022-07-25T11:33:38;22.90;99.90
19906;DHT22;10115;50.906;4.438;2022-07-25T11:36:04;22.80;99.90
19906;DHT22;10115;50.906;4.438;2022-07-25T11:38:30;22.70;99.90
19906;DHT22;10115;50.906;4.438;2022-07-25T11:40:56;22.60;99.90
19906;DHT22;10115;50.906;4.438;2022-07-25T11:43:22;22.30;99.90
19906;DHT22;10115;50.906;4.438;2022-07-25T11:48:36;22.30;99.90
19906;DHT22;10115;50.906;4.438;2022-07-25T11:51:15;22.30;99.90
19906;DHT22;10115;50.906;4.438;2022-07-25T11:53:47;22.20;99.90
19906;DHT22;10115;50.906;4.438;2022-07-25T11:56:19;22.30;99.90
19906;DHT22;10115;50.906;4.438;2022-07-25T11:58:58;22.30;99.90
19906;DHT22;10115;50.906;4.438;2022-07-25T12:01:32;22.40;99.90
19906;DHT22;10115;50.906;4.438;2022-07-25T12:04:11;22.50;99.90
19906;DHT22;10115;50.906;4.438;2022-07-25T12:06:47;22.60;99.90
19906;DHT22;10115;50.906;4.438;2022-07-25T12:09:19;22.90;99.90
19906;DHT22;10115;50.906;4.438;2022-07-25T12:11:46;23.20;99.90
19906;DHT22;10115;50.906;4.438;2022-07-25T12:14:12;23.40;99.90
19906;DHT22;10115;50.906;4.438;2022-07-25T12:16:38;23.30;99.90
19906;DHT22;10115;50.906;4.438;2022-07-25T12:19:09;23.80;99.90
19906;DHT22;10115;50.906;4.438;2022-07-25T12:21:35;24.10;99.90
19906;DHT22;10115;50.906;4.438;2022-07-25T12:24:01;24.10;99.90
19906;DHT22;10115;50.906;4.438;2022-07-25T12:26:27;24.00;99.90
19906;DHT22;10115;50.906;4.438;2022-07-25T12:28:52;23.80;99.90
19906;DHT22;10115;50.906;4.438;2022-07-25T12:31:18;24.10;99.90
19906;DHT22;10115;50.906;4.438;2022-07-25T12:33:44;23.90;99.90
19906;DHT22;10115;50.906;4.438;2022-07-25T12:36:13;23.90;99.90
19906;DHT22;10115;50.906;4.438;2022-07-25T12:38:38;23.40;99.90
19906;DHT22;10115;50.906;4.438;2022-07-25T12:41:04;23.30;99.90
19906;DHT22;10115;50.906;4.438;2022-07-25T12:43:30;23.20;99.90
19906;DHT22;10115;50.906;4.438;2022-07-25T12:45:56;23.20;99.90
19906;DHT22;10115;50.906;4.438;2022-07-25T12:48:21;23.50;99.90
19906;DHT22;10115;50.906;4.438;2022-07-25T12:50:47;23.90;99.90
19906;DHT22;10115;50.906;4.438;2022-07-25T12:53:13;24.30;99.90
19906;DHT22;10115;50.906;4.438;2022-07-25T12:55:39;24.70;99.90
19906;DHT22;10115;50.906;4.438;2022-07-25T12:58:05;24.70;99.90
19906;DHT22;10115;50.906;4.438;2022-07-25T13:00:31;24.70;99.90
19906;DHT22;10115;50.906;4.438;2022-07-25T13:02:56;24.70;99.90
19906;DHT22;10115;50.906;4.438;2022-07-25T13:05:23;24.30;99.90
19906;DHT22;10115;50.906;4.438;2022-07-25T13:07:50;24.20;99.90
19906;DHT22;10115;50.906;4.438;2022-07-25T13:10:17;24.60;99.90
19906;DHT22;10115;50.906;4.438;2022-07-25T13:12:43;24.40;99.90
19906;DHT22;10115;50.906;4.438;2022-07-25T13:15:09;24.20;99.90
19906;DHT22;10115;50.906;4.438;2022-07-25T13:17:35;23.90;99.90
19906;DHT22;10115;50.906;4.438;2022-07-25T13:20:02;23.80;99.90
19906;DHT22;10115;50.906;4.438;2022-07-25T13:22:28;23.90;99.90
19906;DHT22;10115;50.906;4.438;2022-07-25T13:24:53;24.80;99.90
19906;DHT22;10115;50.906;4.438;2022-07-25T13:27:21;25.10;99.90
19906;DHT22;10115;50.906;4.438;2022-07-25T13:29:47;24.90;99.90
19906;DHT22;10115;50.906;4.438;2022-07-25T13:32:18;24.30;99.90
19906;DHT22;10115;50.906;4.438;2022-07-25T13:34:44;24.40;99.90
19906;DHT22;10115;50.906;4.438;2022-07-25T13:37:10;24.50;99.90
19906;DHT22;10115;50.906;4.438;2022-07-25T13:39:36;25.00;99.90
19906;DHT22;10115;50.906;4.438;2022-07-25T13:42:04;24.70;99.90
19906;DHT22;10115;50.906;4.438;2022-07-25T13:44:30;24.70;99.90
19906;DHT22;10115;50.906;4.438;2022-07-25T13:46:55;24.80;99.90
19906;DHT22;10115;50.906;4.438;2022-07-25T13:49:23;25.40;99.90
19906;DHT22;10115;50.906;4.438;2022-07-25T13:51:49;25.90;99.90
19906;DHT22;10115;50.906;4.438;2022-07-25T13:54:14;26.10;99.90
19906;DHT22;10115;50.906;4.438;2022-07-25T13:56:40;25.70;99.90
19906;DHT22;10115;50.906;4.438;2022-07-25T13:59:06;25.30;99.90
19906;DHT22;10115;50.906;4.438;2022-07-25T14:01:32;25.00;99.90
19906;DHT22;10115;50.906;4.438;2022-07-25T14:03:58;25.20;99.90
19906;DHT22;10115;50.906;4.438;2022-07-25T14:06:24;25.70;99.90
19906;DHT22;10115;50.906;4.438;2022-07-25T14:08:49;26.00;99.90
19906;DHT22;10115;50.906;4.438;2022-07-25T14:11:15;25.60;99.90
19906;DHT22;10115;50.906;4.438;2022-07-25T14:13:41;24.70;99.90
19906;DHT22;10115;50.906;4.438;2022-07-25T14:16:07;24.20;99.90
19906;DHT22;10115;50.906;4.438;2022-07-25T14:18:33;25.10;99.90
19906;DHT22;10115;50.906;4.438;2022-07-25T14:20:59;25.10;99.90
19906;DHT22;10115;50.906;4.438;2022-07-25T14:23:25;24.60;99.90
19906;DHT22;10115;50.906;4.438;2022-07-25T14:25:50;24.70;99.90
19906;DHT22;10115;50.906;4.438;2022-07-25T14:28:16;24.40;99.90
19906;DHT22;10115;50.906;4.438;2022-07-25T14:30:42;24.60;99.90
19906;DHT22;10115;50.906;4.438;2022-07-25T14:33:07;24.60;99.90
19906;DHT22;10115;50.906;4.438;2022-07-25T14:35:34;24.90;99.90
19906;DHT22;10115;50.906;4.438;2022-07-25T14:37:59;25.60;99.90
19906;DHT22;10115;50.906;4.438;2022-07-25T14:40:25;25.50;99.90
19906;DHT22;10115;50.906;4.438;2022-07-25T14:42:51;24.90;99.90
19906;DHT22;10115;50.906;4.438;2022-07-25T14:45:17;24.70;99.90
19906;DHT22;10115;50.906;4.438;2022-07-25T14:47:43;24.30;99.90
19906;DHT22;10115;50.906;4.438;2022-07-25T14:50:09;24.60;99.90
19906;DHT22;10115;50.906;4.438;2022-07-25T14:52:35;25.00;99.90
19906;DHT22;10115;50.906;4.438;2022-07-25T14:55:01;25.90;99.90
19906;DHT22;10115;50.906;4.438;2022-07-25T14:57:27;26.00;99.90
19906;DHT22;10115;50.906;4.438;2022-07-25T14:59:53;25.50;99.90
19906;DHT22;10115;50.906;4.438;2022-07-25T15:02:19;25.20;99.90
19906;DHT22;10115;50.906;4.438;2022-07-25T15:04:44;25.10;99.90
19906;DHT22;10115;50.906;4.438;2022-07-25T15:07:10;25.00;99.90
19906;DHT22;10115;50.906;4.438;2022-07-25T15:09:36;24.40;99.90
19906;DHT22;10115;50.906;4.438;2022-07-25T15:12:02;24.30;99.90
19906;DHT22;10115;50.906;4.438;2022-07-25T15:14:28;24.30;99.90
19906;DHT22;10115;50.906;4.438;2022-07-25T15:16:54;24.60;99.90
19906;DHT22;10115;50.906;4.438;2022-07-25T15:19:20;24.80;99.90
19906;DHT22;10115;50.906;4.438;2022-07-25T15:21:46;24.60;99.90
19906;DHT22;10115;50.906;4.438;2022-07-25T15:24:12;24.50;99.90
19906;DHT22;10115;50.906;4.438;2022-07-25T15:26:38;25.60;99.90
19906;DHT22;10115;50.906;4.438;2022-07-25T15:29:07;26.60;99.90
19906;DHT22;10115;50.906;4.438;2022-07-25T15:31:34;25.90;99.90
19906;DHT22;10115;50.906;4.438;2022-07-25T15:34:00;25.30;99.90
19906;DHT22;10115;50.906;4.438;2022-07-25T15:36:26;25.40;99.90
19906;DHT22;10115;50.906;4.438;2022-07-25T15:38:52;25.50;99.90
19906;DHT22;10115;50.906;4.438;2022-07-25T15:41:17;24.70;99.90